Johann Essberger — CQKG — position and weather

sailwx.info

Track history (hours):
 
Tides and Currents Weather Stations Pressure Air Temp Water Temp Dewpoint Dewpoint Depression Visibility Wind Speed Wind Dir Waves Ship Positions

Johann Essberger

Last reported at 2014-Aug-29 08:33 UTC. Time now 2014-Aug-29 20:25 UTC.
Position N 53°60' E 004°56'.

Length 100 m; draft 6.6 m.

Type: Ship (hazmat cat B). MMSI: 255804460.

Date/timePositionNaut miles runAvg speedWind from/ knotsBaromVisibWave heightAir tempDewpointWater temp
2014-Aug-29 08:33N 53°60' E 004°56'3012.5
2014-Aug-29 06:10N 53°31' E 004°47'813.2
2014-Aug-29 05:33N 53°23' E 004°42'1713.3
2014-Aug-29 04:18N 53°08' E 004°30'1012.7
2014-Aug-29 03:33N 52°60' E 004°22'1212.0
2014-Aug-29 02:33N 52°49' E 004°13'1211.5
2014-Aug-29 01:33N 52°40' E 004°01'2410.8
2014-Aug-28 23:20N 52°21' E 003°37'810.4
2014-Aug-28 22:33N 52°13' E 003°34'1010.0
2014-Aug-28 21:33N 52°05' E 003°25'3010.0
2014-Aug-28 18:33N 51°35' E 003°24'1414.1
2014-Aug-28 17:33N 51°25' E 003°40'6 5.6
2014-Aug-28 16:33N 51°21' E 003°46'0 0.0
2014-Aug-28 15:30N 51°21' E 003°46'0 0.0
2014-Aug-27 22:16N 51°21' E 003°46'0 0.0
2014-Aug-27 21:33N 51°21' E 003°46'7 7.0
2014-Aug-27 20:34N 51°26' E 003°39'2 1.8
2014-Aug-27 19:31N 51°25' E 003°37'0 0.0
2014-Aug-27 18:22N 51°25' E 003°37'0 0.0
2014-Aug-27 17:28N 51°25' E 003°37'0 0.0
2014-Aug-27 16:31N 51°25' E 003°37'0 0.0
2014-Aug-27 15:28N 51°25' E 003°37'0 0.1
2014-Aug-27 14:28N 51°25' E 003°37'0 0.0
2014-Aug-27 13:28N 51°25' E 003°37'0 0.0
2014-Aug-27 12:28N 51°25' E 003°37'0 0.0
2014-Aug-27 11:28N 51°25' E 003°37'0 0.0
2014-Aug-27 10:28N 51°25' E 003°37'0 0.0
2014-Aug-27 09:31N 51°25' E 003°37'0 0.1
2014-Aug-27 08:22N 51°25' E 003°37'0 0.0
2014-Aug-27 07:28N 51°25' E 003°37'0 0.0
2014-Aug-27 06:28N 51°25' E 003°37'0 0.0
2014-Aug-27 05:33N 51°25' E 003°37'0 0.0
2014-Aug-27 04:30N 51°25' E 003°37'0 0.0
2014-Aug-27 03:33N 51°25' E 003°37'0 0.1
2014-Aug-27 02:32N 51°25' E 003°37'0 0.0
2014-Aug-27 01:32N 51°25' E 003°37'0 0.1
2014-Aug-27 00:33N 51°25' E 003°37'6 6.0
2014-Aug-26 23:33N 51°22' E 003°45'1 0.1
2014-Aug-26 09:34N 51°21' E 003°46'6 5.9
2014-Aug-26 08:34N 51°25' E 003°40'8 8.1
2014-Aug-26 07:34N 51°21' E 003°51'1111.1
2014-Aug-26 06:33N 51°22' E 004°08'8 8.5
2014-Aug-26 05:33N 51°16' E 004°17'1 1.0
2014-Aug-26 04:33N 51°16' E 004°15'1 1.4
2014-Aug-26 03:32N 51°16' E 004°13'0 0.0
2014-Aug-25 13:05N 51°16' E 004°13'0 0.0
2014-Aug-25 12:33N 51°16' E 004°13'2 1.5
2014-Aug-25 11:30N 51°16' E 004°15'0 0.0
2014-Aug-24 14:10N 51°16' E 004°15'0 0.5
2014-Aug-24 13:33N 51°16' E 004°16'1 0.7
2014-Aug-24 12:33N 51°16' E 004°17'9 8.8
2014-Aug-24 11:33N 51°24' E 004°11'1010.5
2014-Aug-24 10:33N 51°22' E 003°54'1413.6
2014-Aug-24 09:33N 51°26' E 003°34'1413.8
2014-Aug-24 08:32N 51°38' E 003°21'48 9.7
2014-Aug-24 03:33N 51°59' E 002°10'8 8.6
2014-Aug-24 02:33N 52°07' E 002°06'8 8.3
2014-Aug-24 01:33N 52°15' E 002°08'7 7.2
2014-Aug-24 00:33N 52°22' E 002°10'6 6.4
2014-Aug-23 23:33N 52°28' E 002°14'84 2.1
2014-Aug-22 07:12N 51°53' E 004°18'0 0.7
2014-Aug-22 06:33N 51°53' E 004°18'6 6.2
2014-Aug-22 05:33N 51°57' E 004°11'1010.2
2014-Aug-22 04:33N 52°00' E 003°55'6010.0
2014-Aug-21 22:30N 52°31' E 002°31'1010.8
2014-Aug-21 21:33N 52°38' E 002°18'1111.4
2014-Aug-21 20:33N 52°44' E 002°02'1212.4
2014-Aug-21 19:33N 52°51' E 001°45'1312.7
2014-Aug-21 18:33N 52°60' E 001°31'1312.6
2014-Aug-21 17:33N 53°11' E 001°20'5212.3
2014-Aug-21 13:22N 53°54' E 000°32'1012.3
2014-Aug-21 12:33N 54°02' E 000°24'1211.7
2014-Aug-21 11:33N 54°13' E 000°15'1111.1
2014-Aug-21 10:33N 54°23' E 000°06'1111.0
2014-Aug-21 09:33N 54°31' W 000°05'1110.7
2014-Aug-21 08:33N 54°39' W 000°19'1510.6
2014-Aug-21 07:08N 54°41' W 000°45'611.0
2014-Aug-21 06:33N 54°41' W 000°56'4 0.2
2014-Aug-20 07:27N 54°41' W 001°03'1 0.6
2014-Aug-20 06:32N 54°41' W 001°03'0 0.0
2014-Aug-20 05:32N 54°41' W 001°03'0 0.0
2014-Aug-20 04:32N 54°41' W 001°03'0 0.0
2014-Aug-20 03:32N 54°41' W 001°03'0 0.0
2014-Aug-20 02:32N 54°41' W 001°03'0 0.0
2014-Aug-20 01:32N 54°41' W 001°03'0 0.0
2014-Aug-20 00:29N 54°41' W 001°03'0 0.0
2014-Aug-19 23:33N 54°41' W 001°03'0 0.0
2014-Aug-19 22:31N 54°41' W 001°03'0 0.0
2014-Aug-19 21:33N 54°41' W 001°03'0 0.0
2014-Aug-19 20:33N 54°41' W 001°03'0 0.0
2014-Aug-19 19:31N 54°41' W 001°03'0 0.0
2014-Aug-19 18:30N 54°41' W 001°03'0 0.0
2014-Aug-19 17:32N 54°41' W 001°03'2 1.7
2014-Aug-19 16:33N 54°41' W 001°01'9 9.2
2014-Aug-19 15:31N 54°48' W 000°49'8 8.3
2014-Aug-19 14:33N 54°53' W 000°39'7 7.0
2014-Aug-19 13:32N 54°59' W 000°31'8 8.6
2014-Aug-19 12:33N 55°04' W 000°42'8 7.1
2014-Aug-19 11:29N 54°58' W 000°48'8 8.3
2014-Aug-19 10:33N 54°51' W 000°55'10 9.5
2014-Aug-19 09:32N 54°43' W 001°03'  
Track history (hours):
 
Tides and Currents Weather Stations Pressure Air Temp Water Temp Dewpoint Dewpoint Depression Visibility Wind Speed Wind Dir Waves Ship Positions

Johann Essberger

Last reported at 2014-Aug-29 08:33 UTC. Time now 2014-Aug-29 20:25 UTC.
Position N 53°60' E 004°56'.

Length 100 m; draft 6.6 m.

Type: Ship (hazmat cat B). MMSI: 255804460.

Date/timePositionNaut miles runAvg speedWind from/ knotsBaromVisibWave heightAir tempDewpointWater temp
2014-Aug-29 08:33N 53°60' E 004°56'3012.5
2014-Aug-29 06:10N 53°31' E 004°47'813.2
2014-Aug-29 05:33N 53°23' E 004°42'1713.3
2014-Aug-29 04:18N 53°08' E 004°30'1012.7
2014-Aug-29 03:33N 52°60' E 004°22'1212.0
2014-Aug-29 02:33N 52°49' E 004°13'1211.5
2014-Aug-29 01:33N 52°40' E 004°01'2410.8
2014-Aug-28 23:20N 52°21' E 003°37'810.4
2014-Aug-28 22:33N 52°13' E 003°34'1010.0
2014-Aug-28 21:33N 52°05' E 003°25'3010.0
2014-Aug-28 18:33N 51°35' E 003°24'1414.1
2014-Aug-28 17:33N 51°25' E 003°40'6 5.6
2014-Aug-28 16:33N 51°21' E 003°46'0 0.0
2014-Aug-28 15:30N 51°21' E 003°46'0 0.0
2014-Aug-27 22:16N 51°21' E 003°46'0 0.0
2014-Aug-27 21:33N 51°21' E 003°46'7 7.0
2014-Aug-27 20:34N 51°26' E 003°39'2 1.8
2014-Aug-27 19:31N 51°25' E 003°37'0 0.0
2014-Aug-27 18:22N 51°25' E 003°37'0 0.0
2014-Aug-27 17:28N 51°25' E 003°37'0 0.0
2014-Aug-27 16:31N 51°25' E 003°37'0 0.0
2014-Aug-27 15:28N 51°25' E 003°37'0 0.1
2014-Aug-27 14:28N 51°25' E 003°37'0 0.0
2014-Aug-27 13:28N 51°25' E 003°37'0 0.0
2014-Aug-27 12:28N 51°25' E 003°37'0 0.0
2014-Aug-27 11:28N 51°25' E 003°37'0 0.0
2014-Aug-27 10:28N 51°25' E 003°37'0 0.0
2014-Aug-27 09:31N 51°25' E 003°37'0 0.1
2014-Aug-27 08:22N 51°25' E 003°37'0 0.0
2014-Aug-27 07:28N 51°25' E 003°37'0 0.0
2014-Aug-27 06:28N 51°25' E 003°37'0 0.0
2014-Aug-27 05:33N 51°25' E 003°37'0 0.0
2014-Aug-27 04:30N 51°25' E 003°37'0 0.0
2014-Aug-27 03:33N 51°25' E 003°37'0 0.1
2014-Aug-27 02:32N 51°25' E 003°37'0 0.0
2014-Aug-27 01:32N 51°25' E 003°37'0 0.1
2014-Aug-27 00:33N 51°25' E 003°37'6 6.0
2014-Aug-26 23:33N 51°22' E 003°45'1 0.1
2014-Aug-26 09:34N 51°21' E 003°46'6 5.9
2014-Aug-26 08:34N 51°25' E 003°40'8 8.1
2014-Aug-26 07:34N 51°21' E 003°51'1111.1
2014-Aug-26 06:33N 51°22' E 004°08'8 8.5
2014-Aug-26 05:33N 51°16' E 004°17'1 1.0
2014-Aug-26 04:33N 51°16' E 004°15'1 1.4
2014-Aug-26 03:32N 51°16' E 004°13'0 0.0
2014-Aug-25 13:05N 51°16' E 004°13'0 0.0
2014-Aug-25 12:33N 51°16' E 004°13'2 1.5
2014-Aug-25 11:30N 51°16' E 004°15'0 0.0
2014-Aug-24 14:10N 51°16' E 004°15'0 0.5
2014-Aug-24 13:33N 51°16' E 004°16'1 0.7
2014-Aug-24 12:33N 51°16' E 004°17'9 8.8
2014-Aug-24 11:33N 51°24' E 004°11'1010.5
2014-Aug-24 10:33N 51°22' E 003°54'1413.6
2014-Aug-24 09:33N 51°26' E 003°34'1413.8
2014-Aug-24 08:32N 51°38' E 003°21'48 9.7
2014-Aug-24 03:33N 51°59' E 002°10'8 8.6
2014-Aug-24 02:33N 52°07' E 002°06'8 8.3
2014-Aug-24 01:33N 52°15' E 002°08'7 7.2
2014-Aug-24 00:33N 52°22' E 002°10'6 6.4
2014-Aug-23 23:33N 52°28' E 002°14'84 2.1
2014-Aug-22 07:12N 51°53' E 004°18'0 0.7
2014-Aug-22 06:33N 51°53' E 004°18'6 6.2
2014-Aug-22 05:33N 51°57' E 004°11'1010.2
2014-Aug-22 04:33N 52°00' E 003°55'6010.0
2014-Aug-21 22:30N 52°31' E 002°31'1010.8
2014-Aug-21 21:33N 52°38' E 002°18'1111.4
2014-Aug-21 20:33N 52°44' E 002°02'1212.4
2014-Aug-21 19:33N 52°51' E 001°45'1312.7
2014-Aug-21 18:33N 52°60' E 001°31'1312.6
2014-Aug-21 17:33N 53°11' E 001°20'5212.3
2014-Aug-21 13:22N 53°54' E 000°32'1012.3
2014-Aug-21 12:33N 54°02' E 000°24'1211.7
2014-Aug-21 11:33N 54°13' E 000°15'1111.1
2014-Aug-21 10:33N 54°23' E 000°06'1111.0
2014-Aug-21 09:33N 54°31' W 000°05'1110.7
2014-Aug-21 08:33N 54°39' W 000°19'1510.6
2014-Aug-21 07:08N 54°41' W 000°45'611.0
2014-Aug-21 06:33N 54°41' W 000°56'4 0.2
2014-Aug-20 07:27N 54°41' W 001°03'1 0.6
2014-Aug-20 06:32N 54°41' W 001°03'0 0.0
2014-Aug-20 05:32N 54°41' W 001°03'0 0.0
2014-Aug-20 04:32N 54°41' W 001°03'0 0.0
2014-Aug-20 03:32N 54°41' W 001°03'0 0.0
2014-Aug-20 02:32N 54°41' W 001°03'0 0.0
2014-Aug-20 01:32N 54°41' W 001°03'0 0.0
2014-Aug-20 00:29N 54°41' W 001°03'0 0.0
2014-Aug-19 23:33N 54°41' W 001°03'0 0.0
2014-Aug-19 22:31N 54°41' W 001°03'0 0.0
2014-Aug-19 21:33N 54°41' W 001°03'0 0.0
2014-Aug-19 20:33N 54°41' W 001°03'0 0.0
2014-Aug-19 19:31N 54°41' W 001°03'0 0.0
2014-Aug-19 18:30N 54°41' W 001°03'0 0.0
2014-Aug-19 17:32N 54°41' W 001°03'2 1.7
2014-Aug-19 16:33N 54°41' W 001°01'9 9.2
2014-Aug-19 15:31N 54°48' W 000°49'8 8.3
2014-Aug-19 14:33N 54°53' W 000°39'7 7.0
2014-Aug-19 13:32N 54°59' W 000°31'8 8.6
2014-Aug-19 12:33N 55°04' W 000°42'8 7.1
2014-Aug-19 11:29N 54°58' W 000°48'8 8.3
2014-Aug-19 10:33N 54°51' W 000°55'10 9.5
2014-Aug-19 09:32N 54°43' W 001°03'  

Dump ship's entire track history